sensor_id;sensor_type;location;lat;lon;timestamp;pressure;altitude;pressure_sealevel;temperature;humidity
73338;BME280;61575;49.908;35.556;2023-09-08T00:02:40;100061.88;;;10.75;63.57
73338;BME280;61575;49.908;35.556;2023-09-08T00:05:42;100062.50;;;10.69;63.90
73338;BME280;61575;49.908;35.556;2023-09-08T00:08:43;100062.66;;;10.68;64.06
73338;BME280;61575;49.908;35.556;2023-09-08T00:11:45;100054.72;;;10.66;63.99
73338;BME280;61575;49.908;35.556;2023-09-08T00:14:47;100064.50;;;10.67;63.92
73338;BME280;61575;49.908;35.556;2023-09-08T00:17:49;100056.28;;;10.69;63.75
73338;BME280;61575;49.908;35.556;2023-09-08T00:20:51;100055.13;;;10.71;63.67
73338;BME280;61575;49.908;35.556;2023-09-08T00:23:53;100059.50;;;10.72;63.61
73338;BME280;61575;49.908;35.556;2023-09-08T00:26:55;100060.50;;;10.71;63.86
73338;BME280;61575;49.908;35.556;2023-09-08T00:29:58;100063.19;;;10.71;63.67
73338;BME280;61575;49.908;35.556;2023-09-08T00:33:00;100055.03;;;10.63;64.85
73338;BME280;61575;49.908;35.556;2023-09-08T00:36:03;100066.78;;;10.62;64.09
73338;BME280;61575;49.908;35.556;2023-09-08T00:39:05;100050.31;;;10.57;64.21
73338;BME280;61575;49.908;35.556;2023-09-08T00:42:07;100052.31;;;10.55;64.29
73338;BME280;61575;49.908;35.556;2023-09-08T00:45:09;100057.28;;;10.50;64.83
73338;BME280;61575;49.908;35.556;2023-09-08T00:48:11;100049.88;;;10.44;64.89
73338;BME280;61575;49.908;35.556;2023-09-08T00:51:14;100044.81;;;10.41;65.24
73338;BME280;61575;49.908;35.556;2023-09-08T00:54:17;100054.16;;;10.37;65.17
73338;BME280;61575;49.908;35.556;2023-09-08T00:57:19;100048.03;;;10.26;65.46
73338;BME280;61575;49.908;35.556;2023-09-08T01:00:21;100052.88;;;10.23;65.53
73338;BME280;61575;49.908;35.556;2023-09-08T01:03:24;100052.34;;;10.19;65.88
73338;BME280;61575;49.908;35.556;2023-09-08T01:06:27;100057.19;;;10.16;66.20
73338;BME280;61575;49.908;35.556;2023-09-08T01:09:29;100055.13;;;10.10;66.51
73338;BME280;61575;49.908;35.556;2023-09-08T01:12:32;100052.19;;;10.03;66.69
73338;BME280;61575;49.908;35.556;2023-09-08T01:15:37;100048.81;;;10.01;66.62
73338;BME280;61575;49.908;35.556;2023-09-08T01:18:39;100050.13;;;9.97;66.85
73338;BME280;61575;49.908;35.556;2023-09-08T01:25:10;100055.94;;;9.92;68.21
73338;BME280;61575;49.908;35.556;2023-09-08T01:28:15;100053.13;;;9.94;66.98
73338;BME280;61575;49.908;35.556;2023-09-08T01:31:17;100047.91;;;9.92;67.18
73338;BME280;61575;49.908;35.556;2023-09-08T01:34:20;100053.13;;;9.94;67.27
73338;BME280;61575;49.908;35.556;2023-09-08T01:37:23;100053.13;;;9.94;66.96
73338;BME280;61575;49.908;35.556;2023-09-08T01:40:25;100040.84;;;9.91;67.18
73338;BME280;61575;49.908;35.556;2023-09-08T01:43:27;100044.53;;;9.90;67.19
73338;BME280;61575;49.908;35.556;2023-09-08T01:46:29;100042.00;;;9.89;67.57
73338;BME280;61575;49.908;35.556;2023-09-08T01:49:31;100044.84;;;9.87;67.56
73338;BME280;61575;49.908;35.556;2023-09-08T01:52:33;100044.44;;;9.82;67.92
73338;BME280;61575;49.908;35.556;2023-09-08T01:55:35;100038.25;;;9.82;67.85
73338;BME280;61575;49.908;35.556;2023-09-08T01:58:37;100037.56;;;9.80;67.97
73338;BME280;61575;49.908;35.556;2023-09-08T02:01:39;100038.16;;;9.74;68.30
73338;BME280;61575;49.908;35.556;2023-09-08T02:04:42;100032.50;;;9.77;67.88
73338;BME280;61575;49.908;35.556;2023-09-08T02:07:44;100035.16;;;9.77;67.90
73338;BME280;61575;49.908;35.556;2023-09-08T02:10:46;100028.97;;;9.76;67.90
73338;BME280;61575;49.908;35.556;2023-09-08T02:13:48;100025.75;;;9.73;68.24
73338;BME280;61575;49.908;35.556;2023-09-08T02:16:50;100029.28;;;9.73;68.14
73338;BME280;61575;49.908;35.556;2023-09-08T02:19:52;100025.06;;;9.71;68.29
73338;BME280;61575;49.908;35.556;2023-09-08T02:22:55;100029.72;;;9.69;68.22
73338;BME280;61575;49.908;35.556;2023-09-08T02:25:57;100032.41;;;9.69;68.40
73338;BME280;61575;49.908;35.556;2023-09-08T02:29:00;100032.72;;;9.66;68.64
73338;BME280;61575;49.908;35.556;2023-09-08T02:32:02;100029.34;;;9.64;68.61
73338;BME280;61575;49.908;35.556;2023-09-08T02:35:05;100041.50;;;9.58;69.02
73338;BME280;61575;49.908;35.556;2023-09-08T02:38:07;100038.59;;;9.51;70.15
73338;BME280;61575;49.908;35.556;2023-09-08T02:41:09;100036.75;;;9.52;69.21
73338;BME280;61575;49.908;35.556;2023-09-08T02:44:12;100032.06;;;9.54;69.19
73338;BME280;61575;49.908;35.556;2023-09-08T02:47:14;100036.59;;;9.53;69.28
73338;BME280;61575;49.908;35.556;2023-09-08T02:50:17;100035.91;;;9.51;69.37
73338;BME280;61575;49.908;35.556;2023-09-08T02:53:20;100037.06;;;9.49;69.79
73338;BME280;61575;49.908;35.556;2023-09-08T02:56:22;100031.84;;;9.47;69.67
73338;BME280;61575;49.908;35.556;2023-09-08T02:59:23;100038.88;;;9.48;69.97
73338;BME280;61575;49.908;35.556;2023-09-08T03:02:25;100031.84;;;9.47;69.61
73338;BME280;61575;49.908;35.556;2023-09-08T03:05:28;100033.81;;;9.45;70.04
73338;BME280;61575;49.908;35.556;2023-09-08T03:08:30;100039.34;;;9.44;69.89
73338;BME280;61575;49.908;35.556;2023-09-08T03:11:32;100038.50;;;9.43;70.18
73338;BME280;61575;49.908;35.556;2023-09-08T03:14:34;100047.38;;;9.44;70.15
73338;BME280;61575;49.908;35.556;2023-09-08T03:17:36;100050.91;;;9.44;69.73
73338;BME280;61575;49.908;35.556;2023-09-08T03:20:38;100043.00;;;9.43;70.20
73338;BME280;61575;49.908;35.556;2023-09-08T03:23:43;100039.47;;;9.42;70.34
73338;BME280;61575;49.908;35.556;2023-09-08T03:26:45;100029.91;;;9.40;70.17
73338;BME280;61575;49.908;35.556;2023-09-08T03:29:47;100032.88;;;9.37;70.49
73338;BME280;61575;49.908;35.556;2023-09-08T03:32:49;100037.69;;;9.33;70.66
73338;BME280;61575;49.908;35.556;2023-09-08T03:35:51;100036.41;;;9.37;70.33
73338;BME280;61575;49.908;35.556;2023-09-08T03:38:54;100037.81;;;9.41;70.52
73338;BME280;61575;49.908;35.556;2023-09-08T03:41:56;100042.25;;;9.50;70.50
73338;BME280;61575;49.908;35.556;2023-09-08T03:44:58;100035.59;;;9.54;70.79
73338;BME280;61575;49.908;35.556;2023-09-08T03:48:00;100030.31;;;9.63;70.79
73338;BME280;61575;49.908;35.556;2023-09-08T03:51:02;100033.09;;;9.71;71.03
73338;BME280;61575;49.908;35.556;2023-09-08T03:54:04;100032.88;;;9.82;70.85
73338;BME280;61575;49.908;35.556;2023-09-08T03:57:08;100031.34;;;9.97;70.37
73338;BME280;61575;49.908;35.556;2023-09-08T04:00:10;100024.75;;;10.09;70.08
73338;BME280;61575;49.908;35.556;2023-09-08T04:03:17;100025.09;;;10.32;69.31
73338;BME280;61575;49.908;35.556;2023-09-08T04:06:19;100020.69;;;10.49;68.82
73338;BME280;61575;49.908;35.556;2023-09-08T04:09:23;100023.22;;;10.68;68.41
73338;BME280;61575;49.908;35.556;2023-09-08T04:12:25;100013.63;;;10.92;67.78
73338;BME280;61575;49.908;35.556;2023-09-08T04:15:27;100019.94;;;11.16;67.11
73338;BME280;61575;49.908;35.556;2023-09-08T04:18:29;100013.13;;;11.38;66.38
73338;BME280;61575;49.908;35.556;2023-09-08T04:21:31;100019.56;;;11.45;65.99
73338;BME280;61575;49.908;35.556;2023-09-08T04:24:37;100015.72;;;11.56;65.56
73338;BME280;61575;49.908;35.556;2023-09-08T04:27:39;100016.09;;;11.69;65.24
73338;BME280;61575;49.908;35.556;2023-09-08T04:30:42;100019.50;;;11.96;64.69
73338;BME280;61575;49.908;35.556;2023-09-08T04:33:44;100024.25;;;12.10;64.00
73338;BME280;61575;49.908;35.556;2023-09-08T04:36:46;100012.63;;;12.26;63.49
73338;BME280;61575;49.908;35.556;2023-09-08T04:39:48;100023.25;;;12.35;63.04
73338;BME280;61575;49.908;35.556;2023-09-08T04:42:50;100021.03;;;12.47;62.74
73338;BME280;61575;49.908;35.556;2023-09-08T04:45:52;100034.31;;;12.65;62.26
73338;BME280;61575;49.908;35.556;2023-09-08T04:48:55;100029.59;;;12.67;62.05
73338;BME280;61575;49.908;35.556;2023-09-08T04:51:58;100023.16;;;12.92;61.61
73338;BME280;61575;49.908;35.556;2023-09-08T04:55:01;100015.16;;;13.15;61.26
73338;BME280;61575;49.908;35.556;2023-09-08T04:58:04;100020.84;;;13.36;60.93
73338;BME280;61575;49.908;35.556;2023-09-08T05:01:07;100016.03;;;13.55;60.41
73338;BME280;61575;49.908;35.556;2023-09-08T05:04:09;100012.50;;;13.77;59.94
73338;BME280;61575;49.908;35.556;2023-09-08T05:07:12;100009.75;;;13.85;59.43
73338;BME280;61575;49.908;35.556;2023-09-08T05:10:15;100009.63;;;13.78;58.40
73338;BME280;61575;49.908;35.556;2023-09-08T05:13:17;100005.09;;;14.02;58.07
73338;BME280;61575;49.908;35.556;2023-09-08T05:16:33;100002.84;;;14.28;57.47
73338;BME280;61575;49.908;35.556;2023-09-08T05:19:41;99994.91;;;14.50;56.70
73338;BME280;61575;49.908;35.556;2023-09-08T05:22:43;100003.88;;;14.65;56.16
73338;BME280;61575;49.908;35.556;2023-09-08T05:25:46;99996.31;;;14.75;55.36
73338;BME280;61575;49.908;35.556;2023-09-08T05:28:48;100006.59;;;15.09;54.90
73338;BME280;61575;49.908;35.556;2023-09-08T05:31:50;100003.22;;;15.22;53.83
73338;BME280;61575;49.908;35.556;2023-09-08T05:34:53;99996.97;;;15.21;53.11
73338;BME280;61575;49.908;35.556;2023-09-08T05:37:55;100002.25;;;15.59;52.57
73338;BME280;61575;49.908;35.556;2023-09-08T05:40:58;100014.72;;;15.74;51.55
73338;BME280;61575;49.908;35.556;2023-09-08T05:44:00;100005.38;;;15.77;50.58
73338;BME280;61575;49.908;35.556;2023-09-08T05:47:02;100016.69;;;16.02;50.34
73338;BME280;61575;49.908;35.556;2023-09-08T05:50:05;100008.22;;;16.33;49.81
73338;BME280;61575;49.908;35.556;2023-09-08T05:53:08;100005.19;;;16.43;49.16
73338;BME280;61575;49.908;35.556;2023-09-08T05:56:10;99998.97;;;16.49;48.72
73338;BME280;61575;49.908;35.556;2023-09-08T05:59:16;99999.69;;;16.85;47.92
73338;BME280;61575;49.908;35.556;2023-09-08T06:02:18;99992.53;;;17.12;47.78
73338;BME280;61575;49.908;35.556;2023-09-08T06:05:20;99991.06;;;17.10;47.29
73338;BME280;61575;49.908;35.556;2023-09-08T06:08:22;99984.53;;;17.39;45.87
73338;BME280;61575;49.908;35.556;2023-09-08T06:11:25;99987.38;;;17.65;45.94
73338;BME280;61575;49.908;35.556;2023-09-08T06:14:27;99984.53;;;17.39;44.49
73338;BME280;61575;49.908;35.556;2023-09-08T06:17:29;99978.41;;;17.71;45.06
73338;BME280;61575;49.908;35.556;2023-09-08T06:20:31;99984.09;;;17.96;44.10
73338;BME280;61575;49.908;35.556;2023-09-08T06:23:35;99971.16;;;18.31;44.19
73338;BME280;61575;49.908;35.556;2023-09-08T06:26:39;99974.75;;;18.58;43.99
73338;BME280;61575;49.908;35.556;2023-09-08T06:29:42;99969.28;;;18.65;42.11
73338;BME280;61575;49.908;35.556;2023-09-08T06:32:47;99965.91;;;18.89;43.02
73338;BME280;61575;49.908;35.556;2023-09-08T06:35:50;99962.53;;;18.93;41.92
73338;BME280;61575;49.908;35.556;2023-09-08T06:38:54;99960.22;;;19.04;42.20
73338;BME280;61575;49.908;35.556;2023-09-08T06:41:56;99959.94;;;19.18;41.54
73338;BME280;61575;49.908;35.556;2023-09-08T06:44:58;99952.56;;;19.39;40.86
73338;BME280;61575;49.908;35.556;2023-09-08T06:48:00;99950.06;;;19.37;40.61
73338;BME280;61575;49.908;35.556;2023-09-08T06:51:03;99953.38;;;19.46;39.94
73338;BME280;61575;49.908;35.556;2023-09-08T06:54:05;99941.03;;;19.43;40.10
73338;BME280;61575;49.908;35.556;2023-09-08T06:57:12;99941.78;;;19.57;39.53
73338;BME280;61575;49.908;35.556;2023-09-08T07:00:15;99943.69;;;19.56;39.02
73338;BME280;61575;49.908;35.556;2023-09-08T07:03:20;99939.16;;;19.37;39.61
73338;BME280;61575;49.908;35.556;2023-09-08T07:06:24;99940.19;;;19.74;39.24
73338;BME280;61575;49.908;35.556;2023-09-08T07:09:26;99932.44;;;19.71;38.79
73338;BME280;61575;49.908;35.556;2023-09-08T07:12:28;99922.19;;;19.98;38.78
73338;BME280;61575;49.908;35.556;2023-09-08T07:15:31;99923.97;;;20.17;38.47
73338;BME280;61575;49.908;35.556;2023-09-08T07:18:32;99925.94;;;20.53;38.22
73338;BME280;61575;49.908;35.556;2023-09-08T07:21:39;99916.44;;;20.38;37.14
73338;BME280;61575;49.908;35.556;2023-09-08T07:24:41;99918.13;;;20.07;37.74
73338;BME280;61575;49.908;35.556;2023-09-08T07:27:43;99916.69;;;20.54;37.89
73338;BME280;61575;49.908;35.556;2023-09-08T07:30:45;99917.84;;;20.65;37.48
73338;BME280;61575;49.908;35.556;2023-09-08T07:33:48;99903.16;;;20.66;37.54
73338;BME280;61575;49.908;35.556;2023-09-08T07:36:50;99903.63;;;21.18;36.57
73338;BME280;61575;49.908;35.556;2023-09-08T07:39:53;99898.25;;;21.41;37.28
73338;BME280;61575;49.908;35.556;2023-09-08T07:42:55;99896.44;;;21.65;36.43
73338;BME280;61575;49.908;35.556;2023-09-08T07:45:57;99889.03;;;21.54;36.13
73338;BME280;61575;49.908;35.556;2023-09-08T07:48:59;99882.75;;;21.53;34.96
73338;BME280;61575;49.908;35.556;2023-09-08T07:52:02;99884.06;;;21.93;35.46
73338;BME280;61575;49.908;35.556;2023-09-08T07:55:06;99892.00;;;21.82;35.13
73338;BME280;61575;49.908;35.556;2023-09-08T07:58:08;99892.63;;;21.84;35.20
73338;BME280;61575;49.908;35.556;2023-09-08T08:01:10;99881.63;;;21.43;35.13
73338;BME280;61575;49.908;35.556;2023-09-08T08:04:12;99885.38;;;21.60;35.17
73338;BME280;61575;49.908;35.556;2023-09-08T08:07:14;99878.69;;;21.44;35.42
73338;BME280;61575;49.908;35.556;2023-09-08T08:10:17;99884.88;;;21.81;35.52
73338;BME280;61575;49.908;35.556;2023-09-08T08:13:19;99876.19;;;21.73;34.42
73338;BME280;61575;49.908;35.556;2023-09-08T08:16:21;99867.69;;;21.33;34.94
73338;BME280;61575;49.908;35.556;2023-09-08T08:19:23;99863.47;;;21.78;34.89
73338;BME280;61575;49.908;35.556;2023-09-08T08:22:28;99857.31;;;21.83;34.91
73338;BME280;61575;49.908;35.556;2023-09-08T08:25:30;99861.72;;;21.96;35.22
73338;BME280;61575;49.908;35.556;2023-09-08T08:28:33;99852.94;;;22.40;34.65
73338;BME280;61575;49.908;35.556;2023-09-08T08:31:35;99859.84;;;22.31;33.70
73338;BME280;61575;49.908;35.556;2023-09-08T08:34:37;99857.59;;;22.52;33.88
73338;BME280;61575;49.908;35.556;2023-09-08T08:37:40;99851.25;;;22.74;34.01
73338;BME280;61575;49.908;35.556;2023-09-08T08:40:43;99855.28;;;22.84;33.71
73338;BME280;61575;49.908;35.556;2023-09-08T08:43:45;99848.13;;;22.83;33.27
73338;BME280;61575;49.908;35.556;2023-09-08T08:46:49;99843.97;;;22.80;33.22
73338;BME280;61575;49.908;35.556;2023-09-08T08:49:53;99837.91;;;22.78;32.91
73338;BME280;61575;49.908;35.556;2023-09-08T08:52:56;99837.34;;;22.64;32.87
73338;BME280;61575;49.908;35.556;2023-09-08T08:55:59;99819.06;;;22.93;32.89
73338;BME280;61575;49.908;35.556;2023-09-08T08:59:01;99821.41;;;23.01;33.05
73338;BME280;61575;49.908;35.556;2023-09-08T09:02:05;99816.72;;;23.13;32.42
73338;BME280;61575;49.908;35.556;2023-09-08T09:05:10;99820.13;;;23.32;32.69
73338;BME280;61575;49.908;35.556;2023-09-08T09:08:14;99818.31;;;23.38;32.12
73338;BME280;61575;49.908;35.556;2023-09-08T09:11:17;99806.66;;;23.31;31.93
73338;BME280;61575;49.908;35.556;2023-09-08T09:14:19;99807.84;;;23.35;32.45
73338;BME280;61575;49.908;35.556;2023-09-08T09:17:21;99807.34;;;22.69;31.66
73338;BME280;61575;49.908;35.556;2023-09-08T09:20:24;99802.84;;;22.52;31.92
73338;BME280;61575;49.908;35.556;2023-09-08T09:23:26;99800.47;;;22.43;31.98
73338;BME280;61575;49.908;35.556;2023-09-08T09:26:28;99798.03;;;22.82;31.79
73338;BME280;61575;49.908;35.556;2023-09-08T09:29:31;99796.59;;;22.79;31.72
73338;BME280;61575;49.908;35.556;2023-09-08T09:32:34;99793.28;;;22.77;31.37
73338;BME280;61575;49.908;35.556;2023-09-08T09:35:45;99792.97;;;22.51;31.63
73338;BME280;61575;49.908;35.556;2023-09-08T09:38:47;99795.09;;;23.00;31.52
73338;BME280;61575;49.908;35.556;2023-09-08T09:41:53;99783.22;;;23.23;30.29
73338;BME280;61575;49.908;35.556;2023-09-08T09:44:55;99789.31;;;23.13;31.16
73338;BME280;61575;49.908;35.556;2023-09-08T09:47:57;99774.31;;;23.16;31.51
73338;BME280;61575;49.908;35.556;2023-09-08T09:51:15;99773.00;;;23.19;30.89
73338;BME280;61575;49.908;35.556;2023-09-08T09:54:18;99773.28;;;23.51;31.00
73338;BME280;61575;49.908;35.556;2023-09-08T09:57:21;99762.16;;;23.57;30.25
73338;BME280;61575;49.908;35.556;2023-09-08T10:00:25;99755.38;;;23.93;31.17
73338;BME280;61575;49.908;35.556;2023-09-08T10:03:29;99760.66;;;23.66;30.39
73338;BME280;61575;49.908;35.556;2023-09-08T10:06:33;99767.81;;;23.67;30.01
73338;BME280;61575;49.908;35.556;2023-09-08T10:09:36;99762.00;;;23.97;29.94
73338;BME280;61575;49.908;35.556;2023-09-08T10:12:38;99755.25;;;24.05;30.27
73338;BME280;61575;49.908;35.556;2023-09-08T10:15:44;99756.84;;;23.67;29.53
73338;BME280;61575;49.908;35.556;2023-09-08T10:18:47;99747.53;;;23.68;29.98
73338;BME280;61575;49.908;35.556;2023-09-08T10:21:55;99747.97;;;23.43;28.25
73338;BME280;61575;49.908;35.556;2023-09-08T10:25:03;99748.38;;;23.69;29.70
73338;BME280;61575;49.908;35.556;2023-09-08T10:28:07;99749.69;;;23.50;29.99
73338;BME280;61575;49.908;35.556;2023-09-08T10:31:10;99743.22;;;23.72;29.94
73338;BME280;61575;49.908;35.556;2023-09-08T10:34:17;99749.53;;;23.56;30.75
73338;BME280;61575;49.908;35.556;2023-09-08T10:37:20;99745.56;;;23.64;30.07
73338;BME280;61575;49.908;35.556;2023-09-08T10:40:24;99731.09;;;23.68;30.52
73338;BME280;61575;49.908;35.556;2023-09-08T10:43:28;99733.75;;;23.63;30.16
73338;BME280;61575;49.908;35.556;2023-09-08T10:46:31;99726.03;;;23.60;30.02
73338;BME280;61575;49.908;35.556;2023-09-08T10:49:38;99717.88;;;23.65;29.95
73338;BME280;61575;49.908;35.556;2023-09-08T10:52:41;99713.72;;;23.63;29.67
73338;BME280;61575;49.908;35.556;2023-09-08T10:55:48;99719.66;;;23.09;30.42
73338;BME280;61575;49.908;35.556;2023-09-08T10:59:13;99714.13;;;23.21;30.70
73338;BME280;61575;49.908;35.556;2023-09-08T11:02:37;99700.38;;;23.33;29.99
73338;BME280;61575;49.908;35.556;2023-09-08T11:05:41;99705.72;;;23.11;30.30
73338;BME280;61575;49.908;35.556;2023-09-08T11:08:45;99685.75;;;22.82;30.54
73338;BME280;61575;49.908;35.556;2023-09-08T11:11:47;99687.09;;;22.96;31.11
73338;BME280;61575;49.908;35.556;2023-09-08T11:14:49;99686.84;;;22.98;31.03
73338;BME280;61575;49.908;35.556;2023-09-08T11:17:51;99681.78;;;23.06;30.92
73338;BME280;61575;49.908;35.556;2023-09-08T11:20:54;99668.41;;;22.93;31.07
73338;BME280;61575;49.908;35.556;2023-09-08T11:23:57;99661.59;;;22.79;31.34
73338;BME280;61575;49.908;35.556;2023-09-08T11:26:59;99657.63;;;22.87;30.91
73338;BME280;61575;49.908;35.556;2023-09-08T11:30:02;99654.31;;;23.01;31.65
73338;BME280;61575;49.908;35.556;2023-09-08T11:33:24;99652.16;;;23.03;31.09
73338;BME280;61575;49.908;35.556;2023-09-08T11:36:29;99654.91;;;23.03;31.16
73338;BME280;61575;49.908;35.556;2023-09-08T11:39:31;99650.75;;;22.56;31.62
73338;BME280;61575;49.908;35.556;2023-09-08T11:42:33;99643.00;;;22.81;32.04
73338;BME280;61575;49.908;35.556;2023-09-08T11:45:35;99636.22;;;22.84;31.79
73338;BME280;61575;49.908;35.556;2023-09-08T11:48:38;99630.63;;;22.62;32.14
73338;BME280;61575;49.908;35.556;2023-09-08T11:51:40;99628.25;;;22.82;31.95
73338;BME280;61575;49.908;35.556;2023-09-08T11:54:42;99621.31;;;22.63;32.50
73338;BME280;61575;49.908;35.556;2023-09-08T11:58:04;99622.31;;;22.57;31.43
73338;BME280;61575;49.908;35.556;2023-09-08T12:01:07;99609.06;;;22.65;31.58
73338;BME280;61575;49.908;35.556;2023-09-08T12:04:19;99609.78;;;22.61;31.41
73338;BME280;61575;49.908;35.556;2023-09-08T12:07:22;99602.75;;;22.65;31.37
73338;BME280;61575;49.908;35.556;2023-09-08T12:10:25;99610.78;;;22.55;31.61
73338;BME280;61575;49.908;35.556;2023-09-08T12:13:27;99581.59;;;22.60;31.75
73338;BME280;61575;49.908;35.556;2023-09-08T12:16:29;99586.81;;;22.62;32.25
73338;BME280;61575;49.908;35.556;2023-09-08T12:19:31;99596.44;;;22.64;31.83
73338;BME280;61575;49.908;35.556;2023-09-08T12:22:33;99589.41;;;22.68;31.56
73338;BME280;61575;49.908;35.556;2023-09-08T12:25:44;99591.78;;;22.36;31.65
73338;BME280;61575;49.908;35.556;2023-09-08T12:28:46;99604.03;;;22.45;32.10
73338;BME280;61575;49.908;35.556;2023-09-08T12:31:49;99584.03;;;22.45;31.69
73338;BME280;61575;49.908;35.556;2023-09-08T12:34:54;99577.19;;;22.59;31.68
73338;BME280;61575;49.908;35.556;2023-09-08T12:38:01;99575.19;;;22.55;31.66
73338;BME280;61575;49.908;35.556;2023-09-08T12:41:03;99569.72;;;22.55;32.08
73338;BME280;61575;49.908;35.556;2023-09-08T12:44:05;99569.31;;;22.63;32.38
73338;BME280;61575;49.908;35.556;2023-09-08T12:47:09;99570.78;;;22.54;32.12
73338;BME280;61575;49.908;35.556;2023-09-08T12:50:11;99567.00;;;22.43;32.38
73338;BME280;61575;49.908;35.556;2023-09-08T12:53:15;99554.22;;;22.32;32.48
73338;BME280;61575;49.908;35.556;2023-09-08T12:56:19;99554.72;;;22.29;32.69
73338;BME280;61575;49.908;35.556;2023-09-08T12:59:21;99558.88;;;22.31;32.73
73338;BME280;61575;49.908;35.556;2023-09-08T13:02:23;99545.00;;;22.21;32.40
73338;BME280;61575;49.908;35.556;2023-09-08T13:05:25;99539.00;;;22.07;32.54
73338;BME280;61575;49.908;35.556;2023-09-08T13:08:28;99538.56;;;21.99;33.10
73338;BME280;61575;49.908;35.556;2023-09-08T13:11:30;99517.44;;;21.82;33.54
73338;BME280;61575;49.908;35.556;2023-09-08T13:14:32;99519.97;;;21.72;33.64
73338;BME280;61575;49.908;35.556;2023-09-08T13:17:34;99521.06;;;21.60;33.28
73338;BME280;61575;49.908;35.556;2023-09-08T13:20:36;99516.81;;;21.40;33.65
73338;BME280;61575;49.908;35.556;2023-09-08T13:23:38;99523.72;;;21.31;34.04
73338;BME280;61575;49.908;35.556;2023-09-08T13:26:40;99510.41;;;21.35;34.19
73338;BME280;61575;49.908;35.556;2023-09-08T13:29:42;99511.59;;;21.39;34.12
73338;BME280;61575;49.908;35.556;2023-09-08T13:32:44;99504.25;;;21.16;34.38
73338;BME280;61575;49.908;35.556;2023-09-08T13:35:47;99508.31;;;21.13;34.25
73338;BME280;61575;49.908;35.556;2023-09-08T13:38:49;99495.13;;;20.99;34.56
73338;BME280;61575;49.908;35.556;2023-09-08T13:41:52;99500.47;;;21.05;34.30
73338;BME280;61575;49.908;35.556;2023-09-08T13:44:54;99493.00;;;21.01;34.59
73338;BME280;61575;49.908;35.556;2023-09-08T13:47:57;99491.56;;;20.98;35.06
73338;BME280;61575;49.908;35.556;2023-09-08T13:51:02;99489.16;;;20.90;35.10
73338;BME280;61575;49.908;35.556;2023-09-08T13:54:08;99490.16;;;20.96;34.73
73338;BME280;61575;49.908;35.556;2023-09-08T13:57:13;99498.81;;;20.93;34.67
73338;BME280;61575;49.908;35.556;2023-09-08T14:00:17;99490.13;;;20.84;34.25
73338;BME280;61575;49.908;35.556;2023-09-08T14:03:25;99476.38;;;21.14;34.65
73338;BME280;61575;49.908;35.556;2023-09-08T14:06:32;99478.25;;;21.13;35.05
73338;BME280;61575;49.908;35.556;2023-09-08T14:09:37;99479.56;;;21.23;34.50
73338;BME280;61575;49.908;35.556;2023-09-08T14:12:42;99484.13;;;21.45;34.42
73338;BME280;61575;49.908;35.556;2023-09-08T14:15:44;99481.88;;;21.42;34.30
73338;BME280;61575;49.908;35.556;2023-09-08T14:18:47;99469.75;;;21.50;34.15
73338;BME280;61575;49.908;35.556;2023-09-08T14:21:48;99471.91;;;21.48;34.10
73338;BME280;61575;49.908;35.556;2023-09-08T14:24:51;99469.00;;;21.66;34.32
73338;BME280;61575;49.908;35.556;2023-09-08T14:27:53;99458.28;;;21.65;33.36
73338;BME280;61575;49.908;35.556;2023-09-08T14:30:55;99471.50;;;21.56;33.40
73338;BME280;61575;49.908;35.556;2023-09-08T14:33:57;99472.19;;;21.63;33.37
73338;BME280;61575;49.908;35.556;2023-09-08T14:36:59;99469.34;;;21.70;33.06
73338;BME280;61575;49.908;35.556;2023-09-08T14:40:05;99462.03;;;21.47;33.33
73338;BME280;61575;49.908;35.556;2023-09-08T14:43:08;99451.06;;;21.59;33.41
73338;BME280;61575;49.908;35.556;2023-09-08T14:46:09;99448.59;;;21.57;33.77
73338;BME280;61575;49.908;35.556;2023-09-08T14:49:12;99451.09;;;21.47;33.42
73338;BME280;61575;49.908;35.556;2023-09-08T14:52:16;99445.31;;;21.43;33.95
73338;BME280;61575;49.908;35.556;2023-09-08T14:55:22;99435.69;;;21.41;33.97
73338;BME280;61575;49.908;35.556;2023-09-08T14:58:24;99435.19;;;21.44;34.20
73338;BME280;61575;49.908;35.556;2023-09-08T15:01:27;99447.84;;;21.22;34.52
73338;BME280;61575;49.908;35.556;2023-09-08T15:04:28;99446.19;;;21.20;34.13
73338;BME280;61575;49.908;35.556;2023-09-08T15:07:31;99433.75;;;21.01;34.57
73338;BME280;61575;49.908;35.556;2023-09-08T15:10:32;99439.47;;;21.00;35.05
73338;BME280;61575;49.908;35.556;2023-09-08T15:13:35;99433.63;;;20.84;35.11
73338;BME280;61575;49.908;35.556;2023-09-08T15:16:37;99432.56;;;20.74;35.37
73338;BME280;61575;49.908;35.556;2023-09-08T15:19:39;99427.69;;;20.76;35.59
73338;BME280;61575;49.908;35.556;2023-09-08T15:22:41;99422.72;;;20.61;35.47
73338;BME280;61575;49.908;35.556;2023-09-08T15:25:50;99421.31;;;20.47;35.70
73338;BME280;61575;49.908;35.556;2023-09-08T15:28:52;99423.19;;;20.46;36.11
73338;BME280;61575;49.908;35.556;2023-09-08T15:31:54;99420.56;;;20.28;36.87
73338;BME280;61575;49.908;35.556;2023-09-08T15:34:56;99419.16;;;20.26;36.71
73338;BME280;61575;49.908;35.556;2023-09-08T15:37:58;99419.31;;;20.01;37.13
73338;BME280;61575;49.908;35.556;2023-09-08T15:44:12;99423.06;;;19.88;37.68
73338;BME280;61575;49.908;35.556;2023-09-08T15:47:17;99424.44;;;19.67;38.45
73338;BME280;61575;49.908;35.556;2023-09-08T15:50:20;99422.06;;;19.59;38.64
73338;BME280;61575;49.908;35.556;2023-09-08T15:53:22;99424.50;;;19.49;38.79
73338;BME280;61575;49.908;35.556;2023-09-08T15:56:24;99425.72;;;19.35;39.23
73338;BME280;61575;49.908;35.556;2023-09-08T15:59:27;99427.47;;;19.29;39.71
73338;BME280;61575;49.908;35.556;2023-09-08T16:02:30;99415.34;;;19.25;40.10